sensor_id;sensor_type;location;lat;lon;timestamp;P1;durP1;ratioP1;P2;durP2;ratioP2
6825;SDS011;3451;52.476;13.316;2023-08-07T00:02:07;4.17;;;2.60;;
6825;SDS011;3451;52.476;13.316;2023-08-07T00:04:33;3.27;;;2.53;;
6825;SDS011;3451;52.476;13.316;2023-08-07T00:07:00;4.80;;;2.73;;
6825;SDS011;3451;52.476;13.316;2023-08-07T00:09:26;5.27;;;3.20;;
6825;SDS011;3451;52.476;13.316;2023-08-07T00:11:52;7.77;;;2.80;;
6825;SDS011;3451;52.476;13.316;2023-08-07T00:14:19;4.33;;;2.60;;
6825;SDS011;3451;52.476;13.316;2023-08-07T00:16:46;4.40;;;2.73;;
6825;SDS011;3451;52.476;13.316;2023-08-07T00:19:12;5.73;;;2.67;;
6825;SDS011;3451;52.476;13.316;2023-08-07T00:21:38;6.53;;;2.57;;
6825;SDS011;3451;52.476;13.316;2023-08-07T00:24:05;5.17;;;2.60;;
6825;SDS011;3451;52.476;13.316;2023-08-07T00:26:31;3.63;;;2.77;;
6825;SDS011;3451;52.476;13.316;2023-08-07T00:28:58;8.27;;;3.50;;
6825;SDS011;3451;52.476;13.316;2023-08-07T00:31:24;6.77;;;2.87;;
6825;SDS011;3451;52.476;13.316;2023-08-07T00:33:51;3.87;;;2.80;;
6825;SDS011;3451;52.476;13.316;2023-08-07T00:36:20;6.00;;;2.90;;
6825;SDS011;3451;52.476;13.316;2023-08-07T00:38:46;6.27;;;2.50;;
6825;SDS011;3451;52.476;13.316;2023-08-07T00:41:12;4.90;;;2.47;;
6825;SDS011;3451;52.476;13.316;2023-08-07T00:43:39;4.53;;;3.00;;
6825;SDS011;3451;52.476;13.316;2023-08-07T00:46:05;6.83;;;3.17;;
6825;SDS011;3451;52.476;13.316;2023-08-07T00:48:31;5.37;;;3.00;;
6825;SDS011;3451;52.476;13.316;2023-08-07T00:50:58;4.97;;;3.20;;
6825;SDS011;3451;52.476;13.316;2023-08-07T00:53:24;9.87;;;3.90;;
6825;SDS011;3451;52.476;13.316;2023-08-07T00:55:51;5.17;;;3.20;;
6825;SDS011;3451;52.476;13.316;2023-08-07T00:58:17;5.83;;;3.10;;
6825;SDS011;3451;52.476;13.316;2023-08-07T01:00:44;9.00;;;3.20;;
6825;SDS011;3451;52.476;13.316;2023-08-07T01:03:11;4.97;;;3.17;;
6825;SDS011;3451;52.476;13.316;2023-08-07T01:05:38;7.43;;;3.33;;
6825;SDS011;3451;52.476;13.316;2023-08-07T01:08:04;5.00;;;3.03;;
6825;SDS011;3451;52.476;13.316;2023-08-07T01:10:35;3.70;;;3.07;;
6825;SDS011;3451;52.476;13.316;2023-08-07T01:13:05;6.30;;;3.00;;
6825;SDS011;3451;52.476;13.316;2023-08-07T01:15:34;7.57;;;2.90;;
6825;SDS011;3451;52.476;13.316;2023-08-07T01:18:02;3.27;;;2.87;;
6825;SDS011;3451;52.476;13.316;2023-08-07T01:20:30;5.00;;;2.97;;
6825;SDS011;3451;52.476;13.316;2023-08-07T01:22:57;7.60;;;3.07;;
6825;SDS011;3451;52.476;13.316;2023-08-07T01:25:23;5.80;;;3.30;;
6825;SDS011;3451;52.476;13.316;2023-08-07T01:30:17;4.57;;;3.07;;
6825;SDS011;3451;52.476;13.316;2023-08-07T01:38:26;6.53;;;3.57;;
6825;SDS011;3451;52.476;13.316;2023-08-07T01:40:53;4.87;;;3.03;;
6825;SDS011;3451;52.476;13.316;2023-08-07T01:43:19;7.33;;;3.57;;
6825;SDS011;3451;52.476;13.316;2023-08-07T01:45:46;9.00;;;3.13;;
6825;SDS011;3451;52.476;13.316;2023-08-07T01:48:12;5.90;;;3.10;;
6825;SDS011;3451;52.476;13.316;2023-08-07T01:50:39;5.50;;;3.63;;
6825;SDS011;3451;52.476;13.316;2023-08-07T01:53:05;5.73;;;3.57;;
6825;SDS011;3451;52.476;13.316;2023-08-07T01:55:32;7.57;;;3.77;;
6825;SDS011;3451;52.476;13.316;2023-08-07T01:57:58;6.30;;;3.60;;
6825;SDS011;3451;52.476;13.316;2023-08-07T02:00:24;7.47;;;3.23;;
6825;SDS011;3451;52.476;13.316;2023-08-07T02:02:51;6.50;;;3.80;;
6825;SDS011;3451;52.476;13.316;2023-08-07T02:05:17;5.13;;;3.47;;
6825;SDS011;3451;52.476;13.316;2023-08-07T02:07:44;5.93;;;3.23;;
6825;SDS011;3451;52.476;13.316;2023-08-07T02:10:10;7.07;;;4.00;;
6825;SDS011;3451;52.476;13.316;2023-08-07T02:12:36;8.30;;;3.43;;
6825;SDS011;3451;52.476;13.316;2023-08-07T02:15:03;5.60;;;3.20;;
6825;SDS011;3451;52.476;13.316;2023-08-07T02:17:29;4.13;;;3.30;;
6825;SDS011;3451;52.476;13.316;2023-08-07T02:19:59;5.67;;;3.57;;
6825;SDS011;3451;52.476;13.316;2023-08-07T02:22:26;5.33;;;3.30;;
6825;SDS011;3451;52.476;13.316;2023-08-07T02:24:52;8.67;;;3.60;;
6825;SDS011;3451;52.476;13.316;2023-08-07T02:27:18;5.30;;;3.43;;
6825;SDS011;3451;52.476;13.316;2023-08-07T02:29:45;6.30;;;3.73;;
6825;SDS011;3451;52.476;13.316;2023-08-07T02:32:11;8.03;;;3.90;;
6825;SDS011;3451;52.476;13.316;2023-08-07T02:34:37;7.07;;;3.67;;
6825;SDS011;3451;52.476;13.316;2023-08-07T02:37:03;6.60;;;3.90;;
6825;SDS011;3451;52.476;13.316;2023-08-07T02:39:30;5.07;;;3.47;;
6825;SDS011;3451;52.476;13.316;2023-08-07T02:41:57;5.63;;;3.87;;
6825;SDS011;3451;52.476;13.316;2023-08-07T02:44:23;6.63;;;3.70;;
6825;SDS011;3451;52.476;13.316;2023-08-07T02:46:49;6.63;;;4.20;;
6825;SDS011;3451;52.476;13.316;2023-08-07T02:49:16;7.93;;;4.03;;
6825;SDS011;3451;52.476;13.316;2023-08-07T02:51:42;6.50;;;3.73;;
6825;SDS011;3451;52.476;13.316;2023-08-07T02:54:08;7.93;;;4.07;;
6825;SDS011;3451;52.476;13.316;2023-08-07T02:56:34;8.03;;;4.20;;
6825;SDS011;3451;52.476;13.316;2023-08-07T02:59:01;6.90;;;3.83;;
6825;SDS011;3451;52.476;13.316;2023-08-07T03:01:28;6.03;;;3.90;;
6825;SDS011;3451;52.476;13.316;2023-08-07T03:03:54;8.87;;;3.93;;
6825;SDS011;3451;52.476;13.316;2023-08-07T03:06:21;7.20;;;4.30;;
6825;SDS011;3451;52.476;13.316;2023-08-07T03:08:47;5.90;;;4.13;;
6825;SDS011;3451;52.476;13.316;2023-08-07T03:11:13;9.17;;;4.10;;
6825;SDS011;3451;52.476;13.316;2023-08-07T03:13:40;9.37;;;4.60;;
6825;SDS011;3451;52.476;13.316;2023-08-07T03:16:07;9.23;;;4.57;;
6825;SDS011;3451;52.476;13.316;2023-08-07T03:18:35;9.67;;;4.40;;
6825;SDS011;3451;52.476;13.316;2023-08-07T03:21:01;7.13;;;4.30;;
6825;SDS011;3451;52.476;13.316;2023-08-07T03:23:28;12.43;;;4.90;;
6825;SDS011;3451;52.476;13.316;2023-08-07T03:26:04;10.07;;;5.17;;
6825;SDS011;3451;52.476;13.316;2023-08-07T03:28:34;5.90;;;4.40;;
6825;SDS011;3451;52.476;13.316;2023-08-07T03:31:01;6.27;;;4.20;;
6825;SDS011;3451;52.476;13.316;2023-08-07T03:33:27;7.07;;;4.60;;
6825;SDS011;3451;52.476;13.316;2023-08-07T03:35:53;8.03;;;5.20;;
6825;SDS011;3451;52.476;13.316;2023-08-07T03:38:20;9.97;;;6.03;;
6825;SDS011;3451;52.476;13.316;2023-08-07T03:40:46;7.67;;;4.93;;
6825;SDS011;3451;52.476;13.316;2023-08-07T03:43:13;7.30;;;4.37;;
6825;SDS011;3451;52.476;13.316;2023-08-07T03:45:39;8.27;;;4.60;;
6825;SDS011;3451;52.476;13.316;2023-08-07T03:48:06;8.33;;;4.63;;
6825;SDS011;3451;52.476;13.316;2023-08-07T03:50:32;7.43;;;4.67;;
6825;SDS011;3451;52.476;13.316;2023-08-07T03:53:01;10.23;;;4.80;;
6825;SDS011;3451;52.476;13.316;2023-08-07T03:55:27;9.43;;;4.63;;
6825;SDS011;3451;52.476;13.316;2023-08-07T03:57:53;7.37;;;4.90;;
6825;SDS011;3451;52.476;13.316;2023-08-07T04:00:19;6.33;;;4.53;;
6825;SDS011;3451;52.476;13.316;2023-08-07T04:02:46;7.37;;;4.93;;
6825;SDS011;3451;52.476;13.316;2023-08-07T04:05:13;8.73;;;4.87;;
6825;SDS011;3451;52.476;13.316;2023-08-07T04:07:39;7.33;;;4.70;;
6825;SDS011;3451;52.476;13.316;2023-08-07T04:10:05;11.83;;;5.00;;
6825;SDS011;3451;52.476;13.316;2023-08-07T04:12:32;5.77;;;4.20;;
6825;SDS011;3451;52.476;13.316;2023-08-07T04:14:58;8.30;;;4.57;;
6825;SDS011;3451;52.476;13.316;2023-08-07T04:17:24;6.20;;;4.00;;
6825;SDS011;3451;52.476;13.316;2023-08-07T04:19:51;8.73;;;5.33;;
6825;SDS011;3451;52.476;13.316;2023-08-07T04:22:18;8.30;;;4.30;;
6825;SDS011;3451;52.476;13.316;2023-08-07T04:24:44;7.23;;;4.40;;
6825;SDS011;3451;52.476;13.316;2023-08-07T04:27:10;7.10;;;4.33;;
6825;SDS011;3451;52.476;13.316;2023-08-07T04:29:36;6.50;;;4.40;;
6825;SDS011;3451;52.476;13.316;2023-08-07T04:32:03;5.30;;;4.23;;
6825;SDS011;3451;52.476;13.316;2023-08-07T04:34:30;6.97;;;4.30;;
6825;SDS011;3451;52.476;13.316;2023-08-07T04:36:56;6.43;;;4.37;;
6825;SDS011;3451;52.476;13.316;2023-08-07T04:39:23;13.30;;;4.37;;
6825;SDS011;3451;52.476;13.316;2023-08-07T04:41:49;8.30;;;3.97;;
6825;SDS011;3451;52.476;13.316;2023-08-07T04:44:16;6.90;;;4.40;;
6825;SDS011;3451;52.476;13.316;2023-08-07T04:46:42;6.97;;;4.07;;
6825;SDS011;3451;52.476;13.316;2023-08-07T04:49:09;6.23;;;4.13;;
6825;SDS011;3451;52.476;13.316;2023-08-07T04:51:35;6.37;;;4.23;;
6825;SDS011;3451;52.476;13.316;2023-08-07T04:54:01;5.90;;;3.83;;
6825;SDS011;3451;52.476;13.316;2023-08-07T04:56:28;8.40;;;3.93;;
6825;SDS011;3451;52.476;13.316;2023-08-07T04:58:54;8.03;;;3.67;;
6825;SDS011;3451;52.476;13.316;2023-08-07T05:01:20;7.20;;;3.47;;
6825;SDS011;3451;52.476;13.316;2023-08-07T05:03:47;5.80;;;3.83;;
6825;SDS011;3451;52.476;13.316;2023-08-07T05:06:13;8.37;;;3.33;;
6825;SDS011;3451;52.476;13.316;2023-08-07T05:08:39;6.73;;;3.60;;
6825;SDS011;3451;52.476;13.316;2023-08-07T05:11:06;5.47;;;3.47;;
6825;SDS011;3451;52.476;13.316;2023-08-07T05:13:32;6.10;;;3.23;;
6825;SDS011;3451;52.476;13.316;2023-08-07T05:15:59;5.80;;;3.37;;
6825;SDS011;3451;52.476;13.316;2023-08-07T05:18:25;5.50;;;3.20;;
6825;SDS011;3451;52.476;13.316;2023-08-07T05:20:51;6.87;;;3.63;;
6825;SDS011;3451;52.476;13.316;2023-08-07T05:23:18;5.90;;;3.40;;
6825;SDS011;3451;52.476;13.316;2023-08-07T05:25:44;7.63;;;3.30;;
6825;SDS011;3451;52.476;13.316;2023-08-07T05:28:12;5.53;;;3.20;;
6825;SDS011;3451;52.476;13.316;2023-08-07T05:30:39;6.33;;;3.50;;
6825;SDS011;3451;52.476;13.316;2023-08-07T05:33:05;6.60;;;3.57;;
6825;SDS011;3451;52.476;13.316;2023-08-07T05:35:31;8.10;;;3.63;;
6825;SDS011;3451;52.476;13.316;2023-08-07T05:37:58;8.00;;;3.43;;
6825;SDS011;3451;52.476;13.316;2023-08-07T05:40:24;5.37;;;3.10;;
6825;SDS011;3451;52.476;13.316;2023-08-07T05:42:50;7.10;;;3.83;;
6825;SDS011;3451;52.476;13.316;2023-08-07T05:45:17;7.57;;;3.30;;
6825;SDS011;3451;52.476;13.316;2023-08-07T05:47:43;4.20;;;3.20;;
6825;SDS011;3451;52.476;13.316;2023-08-07T05:50:10;4.53;;;3.43;;
6825;SDS011;3451;52.476;13.316;2023-08-07T05:52:36;5.33;;;3.13;;
6825;SDS011;3451;52.476;13.316;2023-08-07T05:55:03;4.77;;;3.47;;
6825;SDS011;3451;52.476;13.316;2023-08-07T05:57:32;4.07;;;2.90;;
6825;SDS011;3451;52.476;13.316;2023-08-07T05:59:58;5.07;;;3.30;;
6825;SDS011;3451;52.476;13.316;2023-08-07T06:02:25;6.80;;;3.87;;
6825;SDS011;3451;52.476;13.316;2023-08-07T06:04:51;4.47;;;3.27;;
6825;SDS011;3451;52.476;13.316;2023-08-07T06:07:18;7.60;;;3.90;;
6825;SDS011;3451;52.476;13.316;2023-08-07T06:09:45;5.10;;;3.43;;
6825;SDS011;3451;52.476;13.316;2023-08-07T06:12:11;4.80;;;2.70;;
6825;SDS011;3451;52.476;13.316;2023-08-07T06:14:38;5.33;;;2.97;;
6825;SDS011;3451;52.476;13.316;2023-08-07T06:17:04;5.13;;;3.10;;
6825;SDS011;3451;52.476;13.316;2023-08-07T06:19:31;7.50;;;3.03;;
6825;SDS011;3451;52.476;13.316;2023-08-07T06:21:58;4.17;;;2.80;;
6825;SDS011;3451;52.476;13.316;2023-08-07T06:24:25;6.80;;;3.30;;
6825;SDS011;3451;52.476;13.316;2023-08-07T06:26:52;5.00;;;2.97;;
6825;SDS011;3451;52.476;13.316;2023-08-07T06:29:18;7.47;;;3.13;;
6825;SDS011;3451;52.476;13.316;2023-08-07T06:31:45;5.60;;;2.70;;
6825;SDS011;3451;52.476;13.316;2023-08-07T06:34:11;3.40;;;2.37;;
6825;SDS011;3451;52.476;13.316;2023-08-07T06:36:37;5.00;;;2.43;;
6825;SDS011;3451;52.476;13.316;2023-08-07T06:39:04;5.57;;;2.40;;
6825;SDS011;3451;52.476;13.316;2023-08-07T06:41:30;7.33;;;2.67;;
6825;SDS011;3451;52.476;13.316;2023-08-07T06:43:57;3.87;;;2.40;;
6825;SDS011;3451;52.476;13.316;2023-08-07T06:46:23;4.70;;;2.13;;
6825;SDS011;3451;52.476;13.316;2023-08-07T06:48:53;3.57;;;2.37;;
6825;SDS011;3451;52.476;13.316;2023-08-07T06:51:19;3.83;;;2.03;;
6825;SDS011;3451;52.476;13.316;2023-08-07T06:53:45;5.50;;;2.47;;
6825;SDS011;3451;52.476;13.316;2023-08-07T06:56:12;3.50;;;2.20;;
6825;SDS011;3451;52.476;13.316;2023-08-07T06:58:38;6.10;;;2.00;;
6825;SDS011;3451;52.476;13.316;2023-08-07T07:01:04;3.93;;;2.20;;
6825;SDS011;3451;52.476;13.316;2023-08-07T07:03:31;5.03;;;2.10;;
6825;SDS011;3451;52.476;13.316;2023-08-07T07:05:57;7.30;;;2.40;;
6825;SDS011;3451;52.476;13.316;2023-08-07T07:08:23;2.93;;;1.90;;
6825;SDS011;3451;52.476;13.316;2023-08-07T07:10:50;8.50;;;1.97;;
6825;SDS011;3451;52.476;13.316;2023-08-07T07:13:16;7.57;;;2.43;;
6825;SDS011;3451;52.476;13.316;2023-08-07T07:15:42;3.50;;;1.70;;
6825;SDS011;3451;52.476;13.316;2023-08-07T07:18:10;5.73;;;1.80;;
6825;SDS011;3451;52.476;13.316;2023-08-07T07:20:36;6.50;;;2.60;;
6825;SDS011;3451;52.476;13.316;2023-08-07T07:23:02;3.57;;;1.90;;
6825;SDS011;3451;52.476;13.316;2023-08-07T07:25:28;6.57;;;1.97;;
6825;SDS011;3451;52.476;13.316;2023-08-07T07:27:55;2.37;;;1.70;;
6825;SDS011;3451;52.476;13.316;2023-08-07T07:30:21;4.73;;;1.83;;
6825;SDS011;3451;52.476;13.316;2023-08-07T07:32:49;2.97;;;1.80;;
6825;SDS011;3451;52.476;13.316;2023-08-07T07:35:15;3.50;;;1.70;;
6825;SDS011;3451;52.476;13.316;2023-08-07T07:37:42;5.90;;;1.63;;
6825;SDS011;3451;52.476;13.316;2023-08-07T07:40:08;3.60;;;1.83;;
6825;SDS011;3451;52.476;13.316;2023-08-07T07:42:35;3.93;;;1.73;;
6825;SDS011;3451;52.476;13.316;2023-08-07T07:45:02;3.83;;;1.90;;
6825;SDS011;3451;52.476;13.316;2023-08-07T07:47:28;5.30;;;1.70;;
6825;SDS011;3451;52.476;13.316;2023-08-07T07:50:04;2.43;;;1.57;;
6825;SDS011;3451;52.476;13.316;2023-08-07T07:52:30;4.50;;;2.10;;
6825;SDS011;3451;52.476;13.316;2023-08-07T07:54:57;3.23;;;1.90;;
6825;SDS011;3451;52.476;13.316;2023-08-07T07:57:23;5.10;;;2.03;;
6825;SDS011;3451;52.476;13.316;2023-08-07T07:59:50;5.03;;;1.90;;
6825;SDS011;3451;52.476;13.316;2023-08-07T08:02:17;2.73;;;2.00;;
6825;SDS011;3451;52.476;13.316;2023-08-07T08:04:43;2.70;;;1.67;;
6825;SDS011;3451;52.476;13.316;2023-08-07T08:07:09;5.27;;;1.80;;
6825;SDS011;3451;52.476;13.316;2023-08-07T08:09:36;3.67;;;1.70;;
6825;SDS011;3451;52.476;13.316;2023-08-07T08:12:02;4.50;;;1.73;;
6825;SDS011;3451;52.476;13.316;2023-08-07T08:14:29;4.00;;;1.60;;
6825;SDS011;3451;52.476;13.316;2023-08-07T08:17:12;3.30;;;1.67;;
6825;SDS011;3451;52.476;13.316;2023-08-07T08:19:38;4.53;;;1.63;;
6825;SDS011;3451;52.476;13.316;2023-08-07T08:22:16;3.40;;;1.73;;
6825;SDS011;3451;52.476;13.316;2023-08-07T08:24:42;3.63;;;1.73;;
6825;SDS011;3451;52.476;13.316;2023-08-07T08:27:09;4.33;;;1.80;;
6825;SDS011;3451;52.476;13.316;2023-08-07T08:29:35;3.37;;;1.90;;
6825;SDS011;3451;52.476;13.316;2023-08-07T08:32:02;2.83;;;1.70;;
6825;SDS011;3451;52.476;13.316;2023-08-07T08:34:28;3.40;;;1.87;;
6825;SDS011;3451;52.476;13.316;2023-08-07T08:36:55;4.37;;;1.80;;
6825;SDS011;3451;52.476;13.316;2023-08-07T08:39:21;4.33;;;2.07;;
6825;SDS011;3451;52.476;13.316;2023-08-07T08:41:49;4.80;;;2.07;;
6825;SDS011;3451;52.476;13.316;2023-08-07T08:44:16;2.83;;;1.90;;
6825;SDS011;3451;52.476;13.316;2023-08-07T08:46:43;3.27;;;1.90;;
6825;SDS011;3451;52.476;13.316;2023-08-07T08:49:10;3.57;;;1.63;;
6825;SDS011;3451;52.476;13.316;2023-08-07T08:51:37;5.77;;;1.90;;
6825;SDS011;3451;52.476;13.316;2023-08-07T08:54:03;2.40;;;1.53;;
6825;SDS011;3451;52.476;13.316;2023-08-07T08:56:30;3.77;;;1.70;;
6825;SDS011;3451;52.476;13.316;2023-08-07T08:58:56;4.77;;;2.00;;
6825;SDS011;3451;52.476;13.316;2023-08-07T09:01:23;2.67;;;1.70;;
6825;SDS011;3451;52.476;13.316;2023-08-07T09:03:53;2.20;;;1.70;;
6825;SDS011;3451;52.476;13.316;2023-08-07T09:06:19;4.57;;;1.73;;
6825;SDS011;3451;52.476;13.316;2023-08-07T09:08:45;2.20;;;1.70;;
6825;SDS011;3451;52.476;13.316;2023-08-07T09:11:12;3.90;;;1.90;;
6825;SDS011;3451;52.476;13.316;2023-08-07T09:13:39;2.80;;;1.60;;
6825;SDS011;3451;52.476;13.316;2023-08-07T09:16:07;4.67;;;1.80;;
6825;SDS011;3451;52.476;13.316;2023-08-07T09:18:34;4.40;;;2.30;;
6825;SDS011;3451;52.476;13.316;2023-08-07T09:21:01;3.30;;;1.80;;
6825;SDS011;3451;52.476;13.316;2023-08-07T09:23:28;5.53;;;1.90;;
6825;SDS011;3451;52.476;13.316;2023-08-07T09:26:01;3.10;;;2.10;;
6825;SDS011;3451;52.476;13.316;2023-08-07T09:28:28;3.70;;;2.03;;
6825;SDS011;3451;52.476;13.316;2023-08-07T09:30:55;3.50;;;1.77;;
6825;SDS011;3451;52.476;13.316;2023-08-07T09:33:25;3.13;;;1.80;;
6825;SDS011;3451;52.476;13.316;2023-08-07T09:35:53;5.13;;;1.80;;
6825;SDS011;3451;52.476;13.316;2023-08-07T09:38:23;3.60;;;2.30;;
6825;SDS011;3451;52.476;13.316;2023-08-07T09:40:49;3.83;;;1.90;;
6825;SDS011;3451;52.476;13.316;2023-08-07T09:43:22;3.13;;;1.60;;
6825;SDS011;3451;52.476;13.316;2023-08-07T09:45:48;3.57;;;1.60;;
6825;SDS011;3451;52.476;13.316;2023-08-07T09:48:22;4.97;;;1.73;;
6825;SDS011;3451;52.476;13.316;2023-08-07T09:50:49;3.90;;;1.53;;
6825;SDS011;3451;52.476;13.316;2023-08-07T09:53:15;3.90;;;1.70;;
6825;SDS011;3451;52.476;13.316;2023-08-07T09:55:42;2.73;;;1.70;;
6825;SDS011;3451;52.476;13.316;2023-08-07T09:58:08;2.93;;;1.70;;
6825;SDS011;3451;52.476;13.316;2023-08-07T10:00:38;2.43;;;1.50;;
6825;SDS011;3451;52.476;13.316;2023-08-07T10:03:05;6.27;;;1.50;;
6825;SDS011;3451;52.476;13.316;2023-08-07T10:05:32;2.53;;;1.30;;
6825;SDS011;3451;52.476;13.316;2023-08-07T10:07:58;6.40;;;1.30;;
6825;SDS011;3451;52.476;13.316;2023-08-07T10:10:25;3.07;;;1.50;;
6825;SDS011;3451;52.476;13.316;2023-08-07T10:12:52;2.47;;;1.23;;
6825;SDS011;3451;52.476;13.316;2023-08-07T10:15:19;5.27;;;1.63;;
6825;SDS011;3451;52.476;13.316;2023-08-07T10:17:45;4.67;;;1.40;;
6825;SDS011;3451;52.476;13.316;2023-08-07T10:20:12;2.73;;;1.50;;
6825;SDS011;3451;52.476;13.316;2023-08-07T10:22:39;3.40;;;1.50;;
6825;SDS011;3451;52.476;13.316;2023-08-07T10:25:06;4.53;;;1.30;;
6825;SDS011;3451;52.476;13.316;2023-08-07T10:27:33;3.70;;;1.47;;
6825;SDS011;3451;52.476;13.316;2023-08-07T10:30:02;4.07;;;1.53;;
6825;SDS011;3451;52.476;13.316;2023-08-07T10:32:30;3.70;;;1.33;;
6825;SDS011;3451;52.476;13.316;2023-08-07T10:34:57;3.20;;;1.40;;
6825;SDS011;3451;52.476;13.316;2023-08-07T10:37:39;3.50;;;1.33;;
6825;SDS011;3451;52.476;13.316;2023-08-07T10:40:07;2.77;;;1.37;;
6825;SDS011;3451;52.476;13.316;2023-08-07T10:45:22;2.17;;;1.30;;
6825;SDS011;3451;52.476;13.316;2023-08-07T10:50:34;3.33;;;1.33;;
6825;SDS011;3451;52.476;13.316;2023-08-07T10:53:04;5.93;;;1.30;;
6825;SDS011;3451;52.476;13.316;2023-08-07T10:55:43;2.20;;;1.30;;
6825;SDS011;3451;52.476;13.316;2023-08-07T10:58:23;3.57;;;1.40;;
6825;SDS011;3451;52.476;13.316;2023-08-07T11:00:50;3.57;;;1.40;;
6825;SDS011;3451;52.476;13.316;2023-08-07T11:03:25;2.63;;;1.40;;
6825;SDS011;3451;52.476;13.316;2023-08-07T11:05:52;2.80;;;1.70;;
6825;SDS011;3451;52.476;13.316;2023-08-07T11:08:22;2.07;;;1.30;;
6825;SDS011;3451;52.476;13.316;2023-08-07T11:10:50;3.53;;;1.50;;
6825;SDS011;3451;52.476;13.316;2023-08-07T11:13:17;4.13;;;1.43;;
6825;SDS011;3451;52.476;13.316;2023-08-07T11:15:43;3.20;;;1.33;;
6825;SDS011;3451;52.476;13.316;2023-08-07T11:18:10;3.57;;;1.47;;
6825;SDS011;3451;52.476;13.316;2023-08-07T11:20:36;8.17;;;1.40;;
6825;SDS011;3451;52.476;13.316;2023-08-07T11:23:04;2.43;;;1.53;;
6825;SDS011;3451;52.476;13.316;2023-08-07T11:25:31;3.70;;;1.30;;
6825;SDS011;3451;52.476;13.316;2023-08-07T11:27:58;3.07;;;1.33;;
6825;SDS011;3451;52.476;13.316;2023-08-07T11:30:24;3.70;;;1.40;;
6825;SDS011;3451;52.476;13.316;2023-08-07T11:32:51;4.77;;;1.87;;
6825;SDS011;3451;52.476;13.316;2023-08-07T11:35:17;2.83;;;1.30;;
6825;SDS011;3451;52.476;13.316;2023-08-07T11:37:47;3.67;;;1.47;;
6825;SDS011;3451;52.476;13.316;2023-08-07T11:40:13;5.37;;;1.80;;
6825;SDS011;3451;52.476;13.316;2023-08-07T11:42:40;4.90;;;1.77;;
6825;SDS011;3451;52.476;13.316;2023-08-07T11:45:07;2.63;;;1.33;;
6825;SDS011;3451;52.476;13.316;2023-08-07T11:47:33;4.40;;;1.63;;
6825;SDS011;3451;52.476;13.316;2023-08-07T11:50:01;3.50;;;1.30;;
6825;SDS011;3451;52.476;13.316;2023-08-07T11:52:27;5.27;;;1.53;;
6825;SDS011;3451;52.476;13.316;2023-08-07T11:54:54;2.63;;;1.40;;
6825;SDS011;3451;52.476;13.316;2023-08-07T11:57:20;2.57;;;1.40;;
6825;SDS011;3451;52.476;13.316;2023-08-07T11:59:47;10.33;;;2.00;;
6825;SDS011;3451;52.476;13.316;2023-08-07T12:02:13;3.40;;;1.47;;
6825;SDS011;3451;52.476;13.316;2023-08-07T12:04:40;3.67;;;1.40;;
6825;SDS011;3451;52.476;13.316;2023-08-07T12:07:07;3.57;;;1.50;;
6825;SDS011;3451;52.476;13.316;2023-08-07T12:09:37;3.57;;;1.50;;
6825;SDS011;3451;52.476;13.316;2023-08-07T12:12:04;3.70;;;2.00;;
6825;SDS011;3451;52.476;13.316;2023-08-07T12:14:31;3.40;;;1.60;;
6825;SDS011;3451;52.476;13.316;2023-08-07T12:17:00;3.23;;;1.70;;
6825;SDS011;3451;52.476;13.316;2023-08-07T12:19:35;2.87;;;1.60;;
6825;SDS011;3451;52.476;13.316;2023-08-07T12:22:01;3.00;;;1.70;;
6825;SDS011;3451;52.476;13.316;2023-08-07T12:24:30;4.30;;;1.33;;
6825;SDS011;3451;52.476;13.316;2023-08-07T12:26:56;4.87;;;1.70;;
6825;SDS011;3451;52.476;13.316;2023-08-07T12:29:23;3.47;;;1.43;;
6825;SDS011;3451;52.476;13.316;2023-08-07T12:31:55;3.70;;;1.43;;
6825;SDS011;3451;52.476;13.316;2023-08-07T12:34:21;2.80;;;1.63;;
6825;SDS011;3451;52.476;13.316;2023-08-07T12:36:50;6.30;;;1.50;;
6825;SDS011;3451;52.476;13.316;2023-08-07T12:39:17;3.23;;;1.47;;
6825;SDS011;3451;52.476;13.316;2023-08-07T12:41:43;4.70;;;1.60;;
6825;SDS011;3451;52.476;13.316;2023-08-07T12:44:30;8.83;;;1.50;;
6825;SDS011;3451;52.476;13.316;2023-08-07T12:46:56;4.27;;;1.67;;
6825;SDS011;3451;52.476;13.316;2023-08-07T12:49:23;7.77;;;1.90;;
6825;SDS011;3451;52.476;13.316;2023-08-07T12:51:49;2.90;;;1.50;;
6825;SDS011;3451;52.476;13.316;2023-08-07T12:54:16;6.93;;;1.70;;
6825;SDS011;3451;52.476;13.316;2023-08-07T12:56:42;6.60;;;2.00;;
6825;SDS011;3451;52.476;13.316;2023-08-07T12:59:08;5.47;;;1.73;;
6825;SDS011;3451;52.476;13.316;2023-08-07T13:01:35;6.13;;;2.07;;
6825;SDS011;3451;52.476;13.316;2023-08-07T13:04:01;7.03;;;2.30;;
6825;SDS011;3451;52.476;13.316;2023-08-07T13:06:30;6.70;;;2.27;;
6825;SDS011;3451;52.476;13.316;2023-08-07T13:08:57;5.30;;;2.20;;
6825;SDS011;3451;52.476;13.316;2023-08-07T13:11:23;5.90;;;2.50;;
6825;SDS011;3451;52.476;13.316;2023-08-07T13:13:49;7.87;;;2.20;;
6825;SDS011;3451;52.476;13.316;2023-08-07T13:16:15;6.33;;;2.63;;
6825;SDS011;3451;52.476;13.316;2023-08-07T13:18:42;6.33;;;2.20;;
6825;SDS011;3451;52.476;13.316;2023-08-07T13:21:08;5.90;;;2.00;;
6825;SDS011;3451;52.476;13.316;2023-08-07T13:23:35;8.03;;;2.33;;
6825;SDS011;3451;52.476;13.316;2023-08-07T13:26:01;5.23;;;2.50;;
6825;SDS011;3451;52.476;13.316;2023-08-07T13:28:28;9.43;;;2.50;;
6825;SDS011;3451;52.476;13.316;2023-08-07T13:30:54;5.30;;;2.40;;
6825;SDS011;3451;52.476;13.316;2023-08-07T13:33:22;10.80;;;2.53;;
6825;SDS011;3451;52.476;13.316;2023-08-07T13:35:48;10.57;;;2.20;;
6825;SDS011;3451;52.476;13.316;2023-08-07T13:38:15;8.77;;;2.00;;
6825;SDS011;3451;52.476;13.316;2023-08-07T13:40:42;5.57;;;2.20;;
6825;SDS011;3451;52.476;13.316;2023-08-07T13:43:10;8.60;;;2.10;;
6825;SDS011;3451;52.476;13.316;2023-08-07T13:45:37;4.80;;;1.77;;
6825;SDS011;3451;52.476;13.316;2023-08-07T13:48:03;6.93;;;1.83;;
6825;SDS011;3451;52.476;13.316;2023-08-07T13:50:32;5.23;;;1.50;;
6825;SDS011;3451;52.476;13.316;2023-08-07T13:52:59;4.43;;;1.40;;
6825;SDS011;3451;52.476;13.316;2023-08-07T13:55:40;9.07;;;2.00;;
6825;SDS011;3451;52.476;13.316;2023-08-07T13:58:06;6.03;;;1.50;;
6825;SDS011;3451;52.476;13.316;2023-08-07T14:00:33;3.00;;;1.40;;
6825;SDS011;3451;52.476;13.316;2023-08-07T14:03:01;4.47;;;1.47;;
6825;SDS011;3451;52.476;13.316;2023-08-07T14:05:27;6.83;;;2.10;;
6825;SDS011;3451;52.476;13.316;2023-08-07T14:07:54;8.03;;;1.87;;
6825;SDS011;3451;52.476;13.316;2023-08-07T14:10:20;8.07;;;1.93;;
6825;SDS011;3451;52.476;13.316;2023-08-07T14:12:46;4.80;;;2.17;;
6825;SDS011;3451;52.476;13.316;2023-08-07T14:15:13;3.97;;;1.80;;
6825;SDS011;3451;52.476;13.316;2023-08-07T14:17:39;6.60;;;2.50;;
6825;SDS011;3451;52.476;13.316;2023-08-07T14:20:06;6.47;;;2.00;;
6825;SDS011;3451;52.476;13.316;2023-08-07T14:22:32;6.83;;;1.77;;
6825;SDS011;3451;52.476;13.316;2023-08-07T14:25:01;7.47;;;2.47;;
6825;SDS011;3451;52.476;13.316;2023-08-07T14:27:27;7.37;;;2.23;;
6825;SDS011;3451;52.476;13.316;2023-08-07T14:29:53;5.60;;;2.23;;
6825;SDS011;3451;52.476;13.316;2023-08-07T14:32:20;5.90;;;1.90;;
6825;SDS011;3451;52.476;13.316;2023-08-07T14:34:46;5.20;;;1.70;;
6825;SDS011;3451;52.476;13.316;2023-08-07T14:37:14;6.13;;;2.00;;
6825;SDS011;3451;52.476;13.316;2023-08-07T14:39:40;6.07;;;2.17;;
6825;SDS011;3451;52.476;13.316;2023-08-07T14:42:07;7.73;;;2.00;;
6825;SDS011;3451;52.476;13.316;2023-08-07T14:44:33;9.07;;;1.90;;
6825;SDS011;3451;52.476;13.316;2023-08-07T14:47:00;7.30;;;2.03;;
6825;SDS011;3451;52.476;13.316;2023-08-07T14:49:26;6.43;;;2.27;;
6825;SDS011;3451;52.476;13.316;2023-08-07T14:51:52;5.13;;;1.70;;
6825;SDS011;3451;52.476;13.316;2023-08-07T14:54:19;14.77;;;2.20;;
6825;SDS011;3451;52.476;13.316;2023-08-07T14:56:45;6.23;;;2.60;;
6825;SDS011;3451;52.476;13.316;2023-08-07T14:59:11;4.97;;;2.47;;
6825;SDS011;3451;52.476;13.316;2023-08-07T15:01:37;8.10;;;2.00;;
6825;SDS011;3451;52.476;13.316;2023-08-07T15:04:04;9.97;;;2.20;;
6825;SDS011;3451;52.476;13.316;2023-08-07T15:06:30;10.97;;;2.13;;
6825;SDS011;3451;52.476;13.316;2023-08-07T15:08:59;8.33;;;2.47;;
6825;SDS011;3451;52.476;13.316;2023-08-07T15:11:25;6.70;;;2.30;;
6825;SDS011;3451;52.476;13.316;2023-08-07T15:13:51;9.33;;;1.90;;